Time;durP1;ratioP1;P1;durP2;ratioP2;P2;SDS_P1;SDS_P2;PMS_P1;PMS_P2;Temp;Humidity;BMP_temperature;BMP_pressure;BME280_temperature;BME280_humidity;BME280_pressure;Samples;Min_cycle;Max_cycle;Signal;HPM_P1;HPM_P2
2021/09/14 00:01:46;;;;;;;47.90;32.00;;;;;;;13.33;74.21;100370.77;1707811;82;21240;-59
2021/09/14 00:04:53;;;;;;;48.02;31.27;;;;;;;13.30;74.49;100367.04;1707776;83;21832;-59
2021/09/14 00:08:00;;;;;;;46.53;30.72;;;;;;;13.28;74.72;100369.67;1696228;83;21196;-59
2021/09/14 00:11:08;;;;;;;48.28;33.13;;;;;;;13.27;74.83;100378.43;1717330;82;21204;-58
2021/09/14 00:14:16;;;;;;;49.60;33.13;;;;;;;13.23;74.80;100366.64;1708763;83;21177;-58
2021/09/14 00:17:21;;;;;;;47.80;31.12;;;;;;;13.25;75.04;100365.94;1707673;82;21342;-58
2021/09/14 00:20:27;;;;;;;48.30;31.50;;;;;;;13.25;75.02;100362.67;1707309;84;21199;-59
2021/09/14 00:23:32;;;;;;;51.18;31.90;;;;;;;13.21;74.98;100365.47;1707996;83;21160;-59
2021/09/14 00:26:38;;;;;;;52.15;33.23;;;;;;;13.16;75.25;100363.81;1707756;82;21263;-59
2021/09/14 00:29:43;;;;;;;47.55;32.80;;;;;;;13.16;75.67;100362.44;1707539;83;21370;-59
2021/09/14 00:32:49;;;;;;;48.00;33.20;;;;;;;13.19;75.99;100364.80;1709990;83;21473;-59
2021/09/14 00:35:55;;;;;;;56.18;34.27;;;;;;;13.23;76.06;100363.89;1685569;85;21732;-59
2021/09/14 00:39:01;;;;;;;46.95;31.97;;;;;;;13.23;76.02;100355.14;1729308;82;21347;-58
2021/09/14 00:42:07;;;;;;;52.13;34.15;;;;;;;13.24;76.19;100350.50;1718348;82;21425;-59
2021/09/14 00:45:13;;;;;;;47.62;31.80;;;;;;;13.25;76.21;100361.30;1718543;82;21390;-59
2021/09/14 00:48:19;;;;;;;46.35;31.60;;;;;;;13.27;75.99;100356.44;1713365;82;21237;-59
2021/09/14 00:51:25;;;;;;;42.38;29.37;;;;;;;13.27;75.60;100364.69;1713151;83;21445;-58
2021/09/14 00:54:32;;;;;;;40.80;28.47;;;;;;;13.24;75.14;100360.95;1712383;82;21718;-59
2021/09/14 00:57:39;;;;;;;44.90;29.87;;;;;;;13.21;74.80;100364.09;1712789;83;21349;-59
2021/09/14 01:00:44;;;;;;;43.98;30.23;;;;;;;13.21;74.87;100357.22;1712541;82;21744;-59
2021/09/14 01:03:51;;;;;;;48.17;31.87;;;;;;;13.23;74.98;100361.14;1712528;83;21382;-59
2021/09/14 01:06:56;;;;;;;44.70;30.52;;;;;;;13.22;75.02;100366.33;1710225;82;21385;-58
2021/09/14 01:10:02;;;;;;;44.03;29.98;;;;;;;13.21;74.99;100370.10;1712878;82;21200;-59
2021/09/14 01:13:09;;;;;;;46.90;28.98;;;;;;;13.17;75.00;100367.42;1713483;82;21231;-58
2021/09/14 01:16:15;;;;;;;42.93;30.45;;;;;;;13.14;75.25;100371.42;1712413;83;21211;-59
2021/09/14 01:19:22;;;;;;;46.23;30.57;;;;;;;13.16;75.44;100376.18;1712630;82;21160;-59
2021/09/14 01:22:36;;;;;;;43.90;29.75;;;;;;;13.19;75.57;100385.41;1712455;83;21390;-58
2021/09/14 01:25:43;;;;;;;47.75;30.75;;;;;;;13.25;75.54;100383.30;1712415;83;21195;-59
2021/09/14 01:28:49;;;;;;;46.35;30.43;;;;;;;13.28;75.56;100386.16;1712340;83;21334;-58
2021/09/14 01:31:50;;;;;;;47.53;31.93;;;;;;;13.31;75.81;100386.64;1712362;83;21334;-58
2021/09/14 01:34:56;;;;;;;48.80;31.70;;;;;;;13.38;75.98;100388.92;1708889;82;21270;-58
2021/09/14 01:38:02;;;;;;;50.78;31.62;;;;;;;13.43;75.83;100380.95;1677280;83;21207;-58
2021/09/14 01:41:08;;;;;;;42.35;30.72;;;;;;;13.47;75.69;100377.30;1697986;83;21350;-57
2021/09/14 01:44:13;;;;;;;45.05;31.00;;;;;;;13.47;75.90;100381.42;1726570;83;21334;-58
2021/09/14 01:47:19;;;;;;;47.43;31.75;;;;;;;13.48;76.02;100382.59;1723196;82;21239;-60
2021/09/14 01:50:24;;;;;;;46.48;29.90;;;;;;;13.48;76.00;100388.10;1685610;84;21224;-59
2021/09/14 01:53:31;;;;;;;44.42;30.70;;;;;;;13.46;76.05;100387.43;1722669;82;21751;-59
2021/09/14 01:56:37;;;;;;;45.30;30.62;;;;;;;13.45;76.43;100386.25;1685408;84;21209;-59
2021/09/14 01:59:43;;;;;;;49.42;32.58;;;;;;;13.46;76.70;100383.86;1722971;82;21262;-60
2021/09/14 02:59:31;;;;;;;40.20;27.90;;;;;;;13.76;76.69;100387.34;1712286;84;20270;-60
2021/09/14 03:02:37;;;;;;;42.53;29.07;;;;;;;13.73;76.57;100387.19;1712211;83;21212;-59
2021/09/14 03:05:45;;;;;;;41.60;29.87;;;;;;;13.70;76.55;100406.02;1712489;83;21401;-63
2021/09/14 03:08:53;;;;;;;45.35;31.52;;;;;;;13.68;76.54;100408.96;1712203;83;21188;-67
2021/09/14 03:12:00;;;;;;;56.95;30.92;;;;;;;13.68;76.53;100410.85;1712268;83;21196;-57
2021/09/14 03:15:08;;;;;;;47.05;31.85;;;;;;;13.67;76.61;100416.03;1712444;83;21223;-58
2021/09/14 03:18:14;;;;;;;48.10;32.90;;;;;;;13.66;76.60;100419.30;1712176;83;21188;-50
2021/09/14 03:21:21;;;;;;;50.80;33.28;;;;;;;13.64;76.65;100413.13;1696196;84;21200;-55
2021/09/14 03:24:27;;;;;;;52.73;33.48;;;;;;;13.61;76.55;100415.41;1712856;83;21390;-61
2021/09/14 03:27:34;;;;;;;62.62;36.60;;;;;;;13.53;76.63;100421.38;1712099;84;21208;-60
2021/09/14 03:30:40;;;;;;;69.25;37.58;;;;;;;13.48;76.85;100426.60;1712261;83;21377;-59
2021/09/14 03:33:46;;;;;;;65.28;37.28;;;;;;;13.44;76.96;100422.55;1711855;83;21207;-59
2021/09/14 03:36:52;;;;;;;69.00;36.63;;;;;;;13.42;77.04;100424.63;1709896;83;21358;-59
2021/09/14 03:39:58;;;;;;;65.40;37.48;;;;;;;13.41;77.08;100436.66;1711746;84;21334;-59
2021/09/14 03:43:03;;;;;;;65.17;36.17;;;;;;;13.41;77.08;100439.41;1711656;83;21397;-59
2021/09/14 03:46:09;;;;;;;65.35;34.85;;;;;;;13.41;77.23;100435.28;1711698;84;21336;-59
2021/09/14 03:49:14;;;;;;;63.75;35.52;;;;;;;13.41;77.19;100441.33;1711997;82;21188;-58
2021/09/14 03:52:19;;;;;;;58.98;34.90;;;;;;;13.41;77.34;100443.53;1712150;83;21330;-59
2021/09/14 03:55:25;;;;;;;59.63;35.73;;;;;;;13.45;77.47;100446.24;1712573;83;21180;-59
2021/09/14 03:58:30;;;;;;;55.43;35.35;;;;;;;13.50;77.57;100456.66;1711994;84;21381;-59
2021/09/14 04:01:38;;;;;;;66.75;36.20;;;;;;;13.53;77.43;100450.26;1711982;83;21342;-59
2021/09/14 04:05:33;;;;;;;55.95;33.98;;;;;;;13.60;77.20;100464.61;1719829;82;21780;-59
2021/09/14 04:11:15;;;;;;;59.33;37.60;;;;;;;13.72;76.92;100463.05;1711404;83;21252;-60
2021/09/14 04:14:25;;;;;;;70.47;38.58;;;;;;;13.77;76.79;100467.45;1711775;83;21401;-60
2021/09/14 04:17:29;;;;;;;64.20;39.92;;;;;;;13.82;76.65;100467.72;1712084;82;21911;-58
2021/09/14 04:20:36;;;;;;;73.15;40.33;;;;;;;13.87;76.56;100462.49;1717531;82;21337;-58
2021/09/14 04:23:41;;;;;;;68.65;38.60;;;;;;;13.93;76.44;100468.59;1717926;82;21565;-58
2021/09/14 04:26:49;;;;;;;65.00;36.98;;;;;;;13.99;76.43;100471.92;1711575;83;21239;-58
2021/09/14 04:29:54;;;;;;;70.12;38.10;;;;;;;14.07;76.46;100471.80;1735951;82;21346;-60
2021/09/14 04:33:01;;;;;;;59.05;35.92;;;;;;;14.12;76.45;100469.31;1741058;82;21325;-58
2021/09/14 04:36:10;;;;;;;59.53;34.10;;;;;;;14.18;76.54;100475.41;1741480;82;21244;-60
2021/09/14 04:39:15;;;;;;;49.67;33.13;;;;;;;14.27;76.70;100479.79;1724900;81;21333;-60
2021/09/14 04:42:23;;;;;;;58.23;34.25;;;;;;;14.36;76.50;100468.95;1710336;82;21729;-60
2021/09/14 04:45:29;;;;;;;57.67;34.50;;;;;;;14.49;76.29;100475.97;1677012;85;21245;-59
2021/09/14 04:48:36;;;;;;;51.28;35.17;;;;;;;14.62;76.11;100482.42;1732131;82;21196;-59
2021/09/14 04:51:43;;;;;;;56.92;33.80;;;;;;;14.74;75.86;100480.84;1739317;81;21209;-59
2021/09/14 04:54:50;;;;;;;61.28;32.88;;;;;;;14.85;75.70;100477.53;1739130;81;21153;-59
2021/09/14 04:57:56;;;;;;;50.78;32.17;;;;;;;14.98;75.72;100486.42;1657129;85;21252;-58
2021/09/14 05:01:02;;;;;;;52.25;31.10;;;;;;;15.09;75.76;100485.86;1726790;81;21192;-62
2021/09/14 05:04:08;;;;;;;59.35;32.93;;;;;;;15.22;75.68;100489.22;1713798;82;21207;-61
2021/09/14 05:07:18;;;;;;;43.52;29.95;;;;;;;15.33;75.55;100487.27;1719726;82;21192;-61
2021/09/14 05:10:26;;;;;;;49.40;29.95;;;;;;;15.44;75.54;100497.76;1739511;81;21768;-62
2021/09/14 05:13:32;;;;;;;45.00;31.77;;;;;;;15.55;75.31;100495.80;1738628;82;21180;-61
2021/09/14 05:16:37;;;;;;;47.10;29.52;;;;;;;15.68;75.15;100498.07;1739293;82;21643;-61
2021/09/14 05:19:47;;;;;;;45.55;30.40;;;;;;;15.82;75.11;100496.23;1723691;82;21561;-61
2021/09/14 05:23:00;;;;;;;42.90;28.10;;;;;;;15.98;75.76;100494.48;1738860;82;21224;-61
2021/09/14 05:26:01;;;;;;;43.63;29.85;;;;;;;16.12;76.13;100498.98;1734374;81;21207;-61
2021/09/14 05:29:08;;;;;;;49.08;30.95;;;;;;;16.27;76.24;100503.78;1723826;81;21180;-61
2021/09/14 05:32:17;;;;;;;41.98;30.65;;;;;;;16.39;76.29;100507.09;1739184;82;21243;-60
2021/09/14 05:35:23;;;;;;;35.38;26.10;;;;;;;16.53;76.45;100506.62;1724320;82;21215;-61
2021/09/14 05:38:31;;;;;;;41.33;25.00;;;;;;;16.66;76.76;100508.03;1737623;81;21230;-60
2021/09/14 05:41:37;;;;;;;26.85;21.35;;;;;;;16.81;76.90;100510.03;1723243;82;21581;-61
2021/09/14 05:44:42;;;;;;;29.82;21.05;;;;;;;16.97;76.95;100509.61;1737038;82;21163;-61
2021/09/14 05:47:47;;;;;;;24.07;15.43;;;;;;;17.12;76.92;100509.38;1740413;81;21190;-60
2021/09/14 05:50:54;;;;;;;20.10;13.68;;;;;;;17.28;76.79;100512.52;1722375;82;21211;-60
2021/09/14 05:54:06;;;;;;;17.92;13.35;;;;;;;17.49;76.35;100516.45;1679828;84;21892;-61
2021/09/14 05:57:12;;;;;;;24.37;13.90;;;;;;;17.68;75.82;100522.47;1700302;84;21253;-59
2021/09/14 06:00:22;;;;;;;16.40;12.63;;;;;;;17.88;75.29;100526.55;1673000;84;21289;-60
2021/09/14 06:03:28;;;;;;;20.27;13.15;;;;;;;18.06;74.65;100528.05;1675541;85;21232;-60
2021/09/14 06:06:35;;;;;;;19.20;12.60;;;;;;;18.23;74.17;100522.33;1695630;84;21221;-61
2021/09/14 06:09:41;;;;;;;17.67;12.93;;;;;;;18.36;73.80;100520.84;1695665;83;21220;-61
2021/09/14 06:12:48;;;;;;;19.00;12.20;;;;;;;18.50;73.27;100521.13;1694736;84;21226;-60
2021/09/14 06:15:54;;;;;;;17.55;11.00;;;;;;;18.62;72.57;100527.64;1673011;84;21751;-60
2021/09/14 06:19:01;;;;;;;12.30;10.18;;;;;;;18.79;71.50;100530.73;1725567;82;21728;-61
2021/09/14 06:22:08;;;;;;;14.43;10.05;;;;;;;18.95;70.41;100528.75;1711033;83;21350;-62
2021/09/14 06:25:14;;;;;;;14.78;9.33;;;;;;;19.11;68.77;100533.20;1731910;82;21220;-61
2021/09/14 06:28:21;;;;;;;14.65;8.55;;;;;;;19.26;67.59;100530.95;1697381;82;21344;-60
2021/09/14 06:31:29;;;;;;;13.25;9.15;;;;;;;19.42;65.95;100532.84;1725082;82;21300;-61
2021/09/14 06:34:36;;;;;;;13.75;8.58;;;;;;;19.52;65.27;100529.83;1738188;82;21724;-60
2021/09/14 06:37:42;;;;;;;13.62;9.63;;;;;;;19.59;64.84;100529.23;1748777;81;21224;-59
2021/09/14 06:40:46;;;;;;;15.28;9.33;;;;;;;19.64;64.36;100532.70;1732457;81;21638;-60
2021/09/14 06:43:54;;;;;;;13.20;8.13;;;;;;;19.68;64.55;100528.40;1728000;82;21220;-59
2021/09/14 06:47:02;;;;;;;13.58;8.10;;;;;;;19.75;64.47;100534.70;1738580;82;21676;-61
2021/09/14 06:50:07;;;;;;;13.95;8.15;;;;;;;19.78;63.81;100530.07;1734283;82;21215;-59
2021/09/14 06:53:13;;;;;;;9.53;6.15;;;;;;;19.83;63.68;100528.84;1706709;82;21227;-59
2021/09/14 06:56:19;;;;;;;17.35;6.37;;;;;;;19.89;62.91;100535.71;1737703;82;21204;-61
2021/09/14 06:59:26;;;;;;;8.83;5.75;;;;;;;19.94;61.76;100537.79;1711155;82;21238;-59
2021/09/14 07:06:08;;;;;;;11.30;5.28;;;;;;;20.08;60.48;100540.70;1736641;82;21794;-60
2021/09/14 07:09:17;;;;;;;10.43;5.55;;;;;;;20.18;60.27;100539.65;1687684;83;21864;-60
2021/09/14 07:12:25;;;;;;;9.73;5.45;;;;;;;20.25;59.93;100540.39;1689530;84;21212;-60
2021/09/14 07:15:34;;;;;;;7.37;5.22;;;;;;;20.32;59.54;100534.21;1705147;82;21228;-59
2021/09/14 07:18:41;;;;;;;5.85;4.10;;;;;;;20.42;59.02;100537.28;1762284;81;21322;-59
2021/09/14 07:22:03;;;;;;;9.23;3.77;;;;;;;20.50;58.98;100539.73;1734613;82;21219;-61
2021/09/14 07:25:09;;;;;;;6.72;4.40;;;;;;;20.58;58.17;100532.45;1738717;82;21823;-60
2021/09/14 07:28:16;;;;;;;5.30;4.10;;;;;;;20.67;56.68;100535.19;1739017;82;21723;-59
2021/09/14 07:31:23;;;;;;;6.45;4.40;;;;;;;20.78;56.51;100542.19;1744191;81;21245;-59
2021/09/14 07:34:30;;;;;;;8.83;4.03;;;;;;;20.90;55.71;100532.45;1685805;83;21339;-60
2021/09/14 07:37:35;;;;;;;7.25;4.80;;;;;;;21.05;54.77;100530.10;1677921;83;21252;-62
2021/09/14 07:40:41;;;;;;;7.53;4.20;;;;;;;21.17;54.41;100536.52;1700623;83;21193;-63
2021/09/14 07:43:50;;;;;;;5.58;4.00;;;;;;;21.28;54.43;100533.45;1701756;84;21202;-64
2021/09/14 07:46:56;;;;;;;6.05;4.00;;;;;;;21.40;54.11;100532.36;1678058;85;21308;-64
2021/09/14 07:50:03;;;;;;;6.05;4.28;;;;;;;21.52;54.31;100529.02;1669124;85;21217;-63
2021/09/14 07:53:08;;;;;;;7.45;4.10;;;;;;;21.63;53.68;100521.19;1681202;85;21198;-61
2021/09/14 07:56:13;;;;;;;7.55;3.83;;;;;;;21.73;52.85;100526.14;1664416;85;21357;-63
2021/09/14 07:59:18;;;;;;;8.03;3.85;;;;;;;21.82;52.95;100529.73;1653237;85;21479;-62
2021/09/14 08:02:24;;;;;;;6.58;4.22;;;;;;;21.89;51.79;100526.27;1654543;85;21225;-60
2021/09/14 08:05:33;;;;;;;6.42;4.10;;;;;;;22.00;51.50;100527.33;1677872;85;21869;-63
2021/09/14 08:08:41;;;;;;;5.50;4.33;;;;;;;22.08;50.81;100527.80;1674533;84;21209;-61
2021/09/14 08:11:47;;;;;;;6.75;4.50;;;;;;;22.12;50.59;100534.56;1671748;84;21203;-64
2021/09/14 08:14:54;;;;;;;8.10;4.20;;;;;;;22.14;50.47;100530.98;1656786;85;21703;-64
2021/09/14 08:18:02;;;;;;;6.20;4.42;;;;;;;22.18;50.60;100526.59;1650750;84;21260;-63
2021/09/14 08:21:07;;;;;;;7.20;4.55;;;;;;;22.22;50.62;100524.16;1654517;85;21280;-62
2021/09/14 08:24:15;;;;;;;9.75;5.90;;;;;;;22.30;50.43;100529.89;1657138;85;21221;-62
2021/09/14 08:27:21;;;;;;;7.12;5.00;;;;;;;22.37;50.26;100523.09;1662329;85;21966;-64
2021/09/14 08:30:28;;;;;;;9.40;4.03;;;;;;;22.47;50.08;100519.08;1675074;85;21810;-64
2021/09/14 08:33:34;;;;;;;5.40;4.17;;;;;;;22.60;49.63;100523.53;1665803;85;21287;-63
2021/09/14 08:36:38;;;;;;;6.55;4.72;;;;;;;22.73;49.76;100518.50;1661115;85;21397;-62
2021/09/14 08:39:43;;;;;;;6.92;4.65;;;;;;;22.82;49.68;100519.77;1665774;84;21202;-63
2021/09/14 08:42:49;;;;;;;10.75;5.10;;;;;;;22.87;49.38;100517.07;1670758;84;21793;-60
2021/09/14 08:45:55;;;;;;;9.05;4.62;;;;;;;22.89;49.40;100516.81;1663724;84;21290;-64
2021/09/14 08:49:00;;;;;;;6.97;4.72;;;;;;;22.87;49.22;100514.28;1603153;88;21281;-63
2021/09/14 08:52:06;;;;;;;7.85;4.67;;;;;;;22.83;49.66;100501.94;1672692;84;21819;-65
2021/09/14 08:55:13;;;;;;;10.80;4.20;;;;;;;22.81;49.83;100505.52;1670496;85;21763;-63
2021/09/14 08:58:20;;;;;;;7.33;4.67;;;;;;;22.81;49.81;100508.31;1694452;84;21712;-63
2021/09/14 09:01:26;;;;;;;5.25;4.50;;;;;;;22.82;49.75;100506.34;1686280;84;21231;-61
2021/09/14 09:04:34;;;;;;;6.20;5.05;;;;;;;22.83;50.17;100502.48;1627051;87;21232;-59
2021/09/14 09:07:45;;;;;;;7.05;4.30;;;;;;;22.88;49.67;100502.00;1651903;86;21921;-59
2021/09/14 09:10:50;;;;;;;7.05;4.80;;;;;;;22.97;49.05;100494.06;1643783;86;21235;-60
2021/09/14 09:13:57;;;;;;;5.67;4.42;;;;;;;23.04;48.19;100496.15;1667235;85;21432;-62
2021/09/14 09:17:14;;;;;;;9.05;5.80;;;;;;;23.10;48.75;100490.94;1674610;85;22013;-62
2021/09/14 09:20:24;;;;;;;8.33;4.62;;;;;;;23.15;48.72;100484.03;1636747;87;21253;-62
2021/09/14 09:23:31;;;;;;;8.18;4.78;;;;;;;23.21;48.60;100484.41;1647511;86;21749;-62
2021/09/14 09:26:44;;;;;;;7.33;4.17;;;;;;;23.32;48.34;100487.14;1647903;86;21279;-61
2021/09/14 09:29:49;;;;;;;;;;;;;;;23.45;46.97;100494.31;1666881;86;21197;-60
2021/09/14 09:32:56;;;;;;;5.20;3.37;;;;;;;23.51;45.84;100481.56;1664847;85;20690;-60
2021/09/14 09:36:16;;;;;;;5.92;3.70;;;;;;;23.53;45.76;100480.72;1673952;85;21413;-59
2021/09/14 09:39:23;;;;;;;10.82;3.95;;;;;;;23.59;45.71;100486.67;1646592;87;22080;-59
2021/09/14 09:42:30;;;;;;;5.85;3.70;;;;;;;23.70;46.36;100474.25;1647416;87;21209;-59
2021/09/14 09:45:36;;;;;;;5.50;3.58;;;;;;;23.80;46.49;100475.21;1671218;85;21308;-60
2021/09/14 09:48:42;;;;;;;12.70;4.53;;;;;;;23.92;46.14;100482.94;1670445;86;21394;-60
2021/09/14 09:51:49;;;;;;;7.20;3.72;;;;;;;23.96;45.67;100479.89;1685000;84;21734;-60
2021/09/14 09:54:55;;;;;;;9.03;3.50;;;;;;;23.93;44.42;100486.59;1698724;84;21829;-58
2021/09/14 09:58:02;;;;;;;7.97;3.70;;;;;;;23.87;44.46;100483.41;1683794;84;21216;-61
2021/09/14 10:01:29;;;;;;;5.87;3.30;;;;;;;23.93;44.46;100479.03;1694958;84;21753;-61
2021/09/14 10:04:36;;;;;;;4.92;3.80;;;;;;;24.09;44.10;100485.13;1696172;83;21204;-61
2021/09/14 10:07:43;;;;;;;4.92;3.45;;;;;;;24.21;43.75;100477.46;1697858;84;21209;-61
2021/09/14 10:10:49;;;;;;;6.20;3.62;;;;;;;24.32;43.23;100477.86;1683954;84;21824;-61
2021/09/14 10:13:57;;;;;;;6.20;3.25;;;;;;;24.40;42.85;100484.39;1669149;86;21260;-61
2021/09/14 10:17:12;;;;;;;7.08;3.50;;;;;;;24.39;43.04;100475.69;1675016;83;21256;-62
2021/09/14 10:20:22;;;;;;;5.97;3.60;;;;;;;24.45;42.94;100483.02;1680528;84;21222;-60
2021/09/14 10:23:30;;;;;;;6.70;3.45;;;;;;;24.54;42.88;100477.26;1681158;84;22151;-60
2021/09/14 10:26:42;;;;;;;6.03;3.60;;;;;;;24.63;43.29;100472.86;1683230;84;21279;-60
2021/09/14 10:29:48;;;;;;;9.33;3.33;;;;;;;24.80;42.95;100476.98;1678257;83;21223;-59
2021/09/14 10:32:56;;;;;;;6.20;3.12;;;;;;;24.92;42.77;100476.23;1692913;83;21653;-56
2021/09/14 10:36:02;;;;;;;8.53;3.83;;;;;;;24.91;41.79;100495.56;1699251;83;21801;-58
2021/09/14 10:39:16;;;;;;;6.08;2.98;;;;;;;24.76;41.65;100482.27;1675527;84;21644;-59
2021/09/14 10:42:26;;;;;;;4.33;3.02;;;;;;;24.73;41.96;100475.80;1704597;83;21240;-58
2021/09/14 10:45:32;;;;;;;7.95;3.02;;;;;;;24.77;41.20;100463.48;1720460;82;21212;-58
2021/09/14 10:48:42;;;;;;;9.53;3.08;;;;;;;24.74;41.03;100476.62;1702031;82;21739;-58
2021/09/14 10:51:47;;;;;;;4.65;3.00;;;;;;;24.72;40.02;100471.87;1705900;82;21255;-57
2021/09/14 10:54:56;;;;;;;8.10;3.15;;;;;;;24.75;39.97;100470.75;1697028;84;21805;-58
2021/09/14 10:58:07;;;;;;;5.87;3.47;;;;;;;24.80;40.54;100460.18;1715868;82;21542;-57
2021/09/14 11:01:22;;;;;;;6.22;3.35;;;;;;;24.73;40.62;100462.34;1728915;82;21302;-58
2021/09/14 11:04:22;;;;;;;6.08;3.75;;;;;;;24.69;40.75;100455.02;1731444;82;21196;-58
2021/09/14 11:07:27;;;;;;;5.37;3.87;;;;;;;24.80;40.53;100462.98;1688920;84;21208;-59
2021/09/14 11:10:40;;;;;;;10.32;3.65;;;;;;;24.94;40.73;100462.81;1659647;85;21792;-58
2021/09/14 11:13:47;;;;;;;4.67;3.72;;;;;;;24.98;40.74;100472.36;1685238;84;21746;-59
2021/09/14 11:16:54;;;;;;;12.65;3.92;;;;;;;24.84;40.88;100460.77;1730983;82;21581;-59
2021/09/14 11:20:00;;;;;;;4.75;3.40;;;;;;;24.86;41.00;100452.92;1728521;82;21180;-59
2021/09/14 11:23:07;;;;;;;5.30;3.37;;;;;;;25.02;41.06;100461.74;1716629;82;21193;-59
2021/09/14 11:26:14;;;;;;;8.23;3.65;;;;;;;25.17;40.09;100463.82;1635132;85;21726;-57
2021/09/14 11:29:20;;;;;;;16.25;10.85;;;;;;;25.24;39.65;100457.98;1660491;86;21234;-59
2021/09/14 11:32:25;;;;;;;7.10;5.12;;;;;;;25.41;39.47;100454.48;1718620;82;21152;-60
2021/09/14 11:35:30;;;;;;;8.13;4.00;;;;;;;25.50;39.14;100455.09;1713109;83;21734;-56
2021/09/14 11:38:37;;;;;;;5.30;3.20;;;;;;;25.65;38.80;100455.74;1683144;84;21597;-60
2021/09/14 11:41:45;;;;;;;6.83;3.33;;;;;;;25.76;38.40;100444.86;1724182;82;21718;-59
2021/09/14 11:44:51;;;;;;;6.17;3.35;;;;;;;25.76;38.13;100449.06;1698476;83;21236;-59
2021/09/14 11:47:56;;;;;;;11.78;3.65;;;;;;;25.80;38.06;100455.84;1721850;82;21270;-60
2021/09/14 11:51:16;;;;;;;4.92;2.77;;;;;;;25.88;37.90;100439.84;1738280;81;21200;-59
2021/09/14 11:54:24;;;;;;;10.80;5.22;;;;;;;26.03;37.57;100452.58;1721427;82;21192;-61
2021/09/14 11:57:28;;;;;;;9.98;4.55;;;;;;;26.12;37.17;100440.55;1733577;82;21192;-60
2021/09/14 12:00:49;;;;;;;7.03;4.03;;;;;;;26.24;36.56;100437.50;1712565;82;21259;-60
2021/09/14 12:03:57;;;;;;;7.20;2.90;;;;;;;26.31;36.43;100444.53;1709956;83;21219;-58
2021/09/14 12:07:05;;;;;;;5.08;3.08;;;;;;;26.36;36.60;100433.31;1735883;82;21199;-58
2021/09/14 12:10:14;;;;;;;5.87;3.22;;;;;;;26.38;35.94;100431.08;1740465;82;21202;-60
2021/09/14 12:13:23;;;;;;;4.53;2.85;;;;;;;26.34;36.28;100441.71;1707711;82;21766;-60
2021/09/14 12:16:32;;;;;;;6.05;2.70;;;;;;;26.23;35.47;100435.80;1704785;82;21242;-59
2021/09/14 12:19:39;;;;;;;4.92;2.90;;;;;;;26.03;35.55;100435.20;1719095;82;21200;-60
2021/09/14 12:22:46;;;;;;;5.08;3.00;;;;;;;25.82;35.87;100437.59;1739154;82;21777;-61
2021/09/14 12:25:52;;;;;;;6.28;2.70;;;;;;;25.72;35.78;100442.33;1739167;81;21208;-59
2021/09/14 12:29:04;;;;;;;4.20;2.27;;;;;;;25.69;35.97;100460.53;1733427;82;21207;-58
2021/09/14 12:32:09;;;;;;;5.72;2.60;;;;;;;25.68;36.13;100448.19;1696946;83;21642;-57
2021/09/14 12:35:18;;;;;;;2.80;2.10;;;;;;;25.66;35.74;100454.61;1707030;83;21268;-58
2021/09/14 12:38:26;;;;;;;4.80;2.30;;;;;;;25.63;35.89;100450.95;1684107;84;21189;-58
2021/09/14 12:41:32;;;;;;;4.50;2.22;;;;;;;25.65;35.64;100452.94;1707774;83;21385;-59
2021/09/14 12:44:38;;;;;;;4.87;2.80;;;;;;;25.60;35.71;100452.91;1683256;84;21336;-57
2021/09/14 12:47:45;;;;;;;7.22;2.10;;;;;;;25.50;35.95;100457.08;1691369;83;21247;-58
2021/09/14 12:50:51;;;;;;;7.60;2.45;;;;;;;25.39;35.70;100451.09;1696830;84;21282;-57
2021/09/14 12:53:56;;;;;;;3.33;2.30;;;;;;;25.30;35.81;100462.50;1686954;84;21202;-59
2021/09/14 12:57:04;;;;;;;5.70;2.12;;;;;;;25.16;36.28;100444.48;1679726;85;21259;-59
2021/09/14 13:00:11;;;;;;;7.83;2.55;;;;;;;25.23;36.67;100443.70;1671044;85;21256;-59
2021/09/14 13:03:17;;;;;;;7.35;2.50;;;;;;;25.35;36.33;100442.95;1652853;86;21209;-58
2021/09/14 13:06:22;;;;;;;8.05;2.77;;;;;;;25.44;36.29;100437.11;1666192;85;21209;-58
2021/09/14 13:09:30;;;;;;;5.65;2.45;;;;;;;25.43;36.31;100457.86;1666411;85;21246;-58
2021/09/14 13:12:38;;;;;;;4.25;2.60;;;;;;;25.36;36.59;100446.03;1670167;85;21383;-57
2021/09/14 13:19:13;;;;;;;6.25;2.47;;;;;;;25.31;36.79;100448.80;1705670;83;21192;-57
2021/09/14 13:22:21;;;;;;;6.25;2.62;;;;;;;25.27;36.89;100447.63;1710411;83;21973;-57
2021/09/14 13:25:28;;;;;;;5.58;2.52;;;;;;;25.26;36.88;100454.36;1720858;82;21216;-58
2021/09/14 13:28:35;;;;;;;4.30;2.40;;;;;;;25.27;36.94;100442.88;1738686;82;21199;-58
2021/09/14 13:31:41;;;;;;;4.28;2.30;;;;;;;25.31;36.80;100438.41;1739540;81;21247;-59
2021/09/14 13:34:48;;;;;;;5.87;2.65;;;;;;;25.34;36.64;100435.67;1734612;82;21192;-57
2021/09/14 13:37:53;;;;;;;5.55;2.70;;;;;;;25.33;35.95;100436.19;1738909;81;21210;-58
2021/09/14 13:41:03;;;;;;;5.70;3.20;;;;;;;25.26;36.30;100430.55;1732357;82;21275;-58
2021/09/14 13:47:32;;;;;;;13.95;3.70;;;;;;;25.18;36.41;100427.66;1709662;82;21246;-55
2021/09/14 13:50:42;;;;;;;4.25;2.83;;;;;;;25.17;36.02;100427.94;1717269;82;21255;-55
2021/09/14 13:53:54;;;;;;;8.18;2.62;;;;;;;25.15;36.13;100425.41;1729888;82;21227;-54
2021/09/14 13:57:04;;;;;;;7.42;2.58;;;;;;;25.13;36.16;100433.81;1703000;83;21276;-59
2021/09/14 14:00:11;;;;;;;5.00;2.37;;;;;;;25.07;35.94;100432.91;1720702;81;21446;-58
2021/09/14 14:03:17;;;;;;;3.27;2.30;;;;;;;25.04;35.87;100428.70;1755046;80;21172;-58
2021/09/14 14:06:28;;;;;;;6.47;2.35;;;;;;;25.02;35.62;100435.12;1729705;82;21222;-59
2021/09/14 14:09:33;;;;;;;6.65;2.58;;;;;;;24.97;35.74;100435.66;1692871;82;21240;-60
2021/09/14 14:12:43;;;;;;;6.37;2.80;;;;;;;24.88;35.65;100437.25;1700922;83;22067;-58
2021/09/14 14:15:48;;;;;;;7.28;2.10;;;;;;;24.83;35.79;100434.44;1687080;84;21341;-57
2021/09/14 14:18:56;;;;;;;7.67;2.22;;;;;;;24.73;35.65;100432.39;1679173;84;21738;-58
2021/09/14 14:22:02;;;;;;;5.25;2.50;;;;;;;24.66;35.89;100437.36;1672583;84;22004;-58
2021/09/14 14:25:09;;;;;;;5.87;2.90;;;;;;;24.63;36.11;100433.66;1702063;83;21777;-58
2021/09/14 14:28:17;;;;;;;7.97;2.25;;;;;;;24.61;36.28;100433.07;1730575;81;21195;-58
2021/09/14 14:31:22;;;;;;;3.60;2.42;;;;;;;24.60;36.42;100431.94;1712386;82;21227;-58
2021/09/14 14:34:28;;;;;;;5.37;2.30;;;;;;;24.54;36.51;100426.87;1721905;83;21198;-58
2021/09/14 14:37:34;;;;;;;4.22;2.75;;;;;;;24.51;36.49;100436.34;1693579;84;21198;-59
2021/09/14 14:40:42;;;;;;;6.17;2.17;;;;;;;24.45;36.50;100445.23;1740018;82;21565;-57
2021/09/14 14:43:50;;;;;;;6.33;2.05;;;;;;;24.37;36.32;100437.31;1740399;80;21172;-57
2021/09/14 14:46:57;;;;;;;9.03;2.95;;;;;;;24.29;36.83;100434.16;1741045;81;21254;-59
2021/09/14 14:50:04;;;;;;;4.50;2.60;;;;;;;24.21;37.03;100438.30;1736607;81;21795;-58
2021/09/14 14:53:10;;;;;;;7.47;5.08;;;;;;;24.15;37.30;100443.52;1697691;84;22110;-57
2021/09/14 14:56:15;;;;;;;16.87;9.75;;;;;;;24.14;37.25;100450.23;1732339;83;21425;-58
2021/09/14 14:59:21;;;;;;;11.48;5.90;;;;;;;24.05;37.23;100446.22;1688626;83;21204;-59
2021/09/14 15:02:29;;;;;;;6.53;3.80;;;;;;;23.95;37.27;100450.25;1673660;85;21218;-59
2021/09/14 15:05:38;;;;;;;4.47;2.65;;;;;;;23.85;37.45;100445.92;1725360;82;21224;-58
2021/09/14 15:08:45;;;;;;;9.55;2.55;;;;;;;23.77;37.40;100449.17;1697791;84;21268;-59
2021/09/14 15:11:51;;;;;;;5.60;3.45;;;;;;;23.69;37.54;100452.42;1731890;83;21212;-58
2021/09/14 15:14:57;;;;;;;16.42;7.53;;;;;;;23.61;37.86;100450.08;1696586;84;21309;-58
2021/09/14 15:18:03;;;;;;;24.18;11.73;;;;;;;23.50;38.58;100464.47;1724820;83;21747;-57
2021/09/14 15:21:11;;;;;;;15.55;8.68;;;;;;;23.40;39.26;100464.89;1723837;83;21181;-58
2021/09/14 15:24:17;;;;;;;17.45;9.05;;;;;;;23.29;40.01;100464.45;1731648;82;21165;-58
2021/09/14 15:27:23;;;;;;;11.08;5.97;;;;;;;23.14;40.48;100469.22;1697283;84;21197;-57
2021/09/14 15:30:49;;;;;;;17.37;9.48;;;;;;;23.04;40.95;100469.62;1732624;82;21343;-58
2021/09/14 15:33:55;;;;;;;13.43;6.95;;;;;;;22.91;41.34;100474.14;1733109;82;21339;-59